Lourdes, Iowa
Current Conditions -  °F | °C
As of 6:35 PM on Sunday 21 Dec 2014 (Local Time) from KCCY Reporting Station
Haze Haze  
Wind Chill: 30°   Ceiling: 400
Heat Index: 37°   Visibility: 1.5mi
Dew Point: 37°   Wind: 10mph
Humidity: 100%   Direction: 150°SSE
Pressure: 29.82"   Gusts: 20mph
Location:  43.2962°N, 92.3767°W
Report Text: KCCY 220035Z AUTO 15009G17KT 1 1/2SM BR OVC004 03/03 A2982 RMK AO2
Loading
Personal Weather Stations






























Interactive Weather Map New forecast layout! Learn more

10-Day Weather Forecast

Advertisements
Track Severe Weather on mobile